sensor_id;sensor_type;location;lat;lon;timestamp;P1;durP1;ratioP1;P2;durP2;ratioP2
2187;SDS011;1100;52.014;8.540;2023-07-31T00:01:42;0.80;;;0.20;;
2187;SDS011;1100;52.014;8.540;2023-07-31T00:04:08;1.00;;;0.20;;
2187;SDS011;1100;52.014;8.540;2023-07-31T00:06:33;0.87;;;0.20;;
2187;SDS011;1100;52.014;8.540;2023-07-31T00:08:58;1.13;;;0.30;;
2187;SDS011;1100;52.014;8.540;2023-07-31T00:11:24;1.20;;;0.37;;
2187;SDS011;1100;52.014;8.540;2023-07-31T00:13:49;1.67;;;0.60;;
2187;SDS011;1100;52.014;8.540;2023-07-31T00:16:14;1.00;;;0.30;;
2187;SDS011;1100;52.014;8.540;2023-07-31T00:18:40;2.23;;;0.57;;
2187;SDS011;1100;52.014;8.540;2023-07-31T00:21:05;1.73;;;0.87;;
2187;SDS011;1100;52.014;8.540;2023-07-31T00:23:30;1.58;;;0.40;;
2187;SDS011;1100;52.014;8.540;2023-07-31T00:25:56;1.63;;;0.60;;
2187;SDS011;1100;52.014;8.540;2023-07-31T00:28:21;1.37;;;0.43;;
2187;SDS011;1100;52.014;8.540;2023-07-31T00:30:46;1.93;;;0.50;;
2187;SDS011;1100;52.014;8.540;2023-07-31T00:33:12;2.37;;;0.90;;
2187;SDS011;1100;52.014;8.540;2023-07-31T00:35:37;1.70;;;0.47;;
2187;SDS011;1100;52.014;8.540;2023-07-31T00:38:02;1.50;;;0.50;;
2187;SDS011;1100;52.014;8.540;2023-07-31T00:40:28;1.93;;;0.60;;
2187;SDS011;1100;52.014;8.540;2023-07-31T00:42:53;1.65;;;0.60;;
2187;SDS011;1100;52.014;8.540;2023-07-31T00:45:18;2.57;;;0.87;;
2187;SDS011;1100;52.014;8.540;2023-07-31T00:47:44;1.97;;;0.40;;
2187;SDS011;1100;52.014;8.540;2023-07-31T00:50:09;1.63;;;0.53;;
2187;SDS011;1100;52.014;8.540;2023-07-31T00:52:36;1.95;;;0.50;;
2187;SDS011;1100;52.014;8.540;2023-07-31T00:55:02;1.52;;;0.50;;
2187;SDS011;1100;52.014;8.540;2023-07-31T00:57:28;1.50;;;0.52;;
2187;SDS011;1100;52.014;8.540;2023-07-31T00:59:54;1.57;;;0.60;;
2187;SDS011;1100;52.014;8.540;2023-07-31T01:02:20;1.77;;;0.60;;
2187;SDS011;1100;52.014;8.540;2023-07-31T01:04:45;1.73;;;0.70;;
2187;SDS011;1100;52.014;8.540;2023-07-31T01:07:18;1.43;;;0.50;;
2187;SDS011;1100;52.014;8.540;2023-07-31T01:12:26;3.00;;;0.80;;
2187;SDS011;1100;52.014;8.540;2023-07-31T01:17:26;1.23;;;0.38;;
2187;SDS011;1100;52.014;8.540;2023-07-31T01:19:51;1.43;;;0.50;;
2187;SDS011;1100;52.014;8.540;2023-07-31T01:22:30;1.48;;;0.47;;
2187;SDS011;1100;52.014;8.540;2023-07-31T01:27:59;1.63;;;0.50;;
2187;SDS011;1100;52.014;8.540;2023-07-31T01:30:31;3.47;;;0.52;;
2187;SDS011;1100;52.014;8.540;2023-07-31T01:33:02;2.72;;;0.60;;
2187;SDS011;1100;52.014;8.540;2023-07-31T01:35:36;0.90;;;0.22;;
2187;SDS011;1100;52.014;8.540;2023-07-31T01:38:02;3.15;;;0.70;;
2187;SDS011;1100;52.014;8.540;2023-07-31T01:40:28;1.20;;;0.40;;
2187;SDS011;1100;52.014;8.540;2023-07-31T01:42:53;0.90;;;0.30;;
2187;SDS011;1100;52.014;8.540;2023-07-31T01:45:19;1.57;;;0.47;;
2187;SDS011;1100;52.014;8.540;2023-07-31T01:47:45;1.13;;;0.30;;
2187;SDS011;1100;52.014;8.540;2023-07-31T01:50:10;1.38;;;0.50;;
2187;SDS011;1100;52.014;8.540;2023-07-31T01:52:35;6.07;;;1.17;;
2187;SDS011;1100;52.014;8.540;2023-07-31T01:55:01;1.17;;;0.27;;
2187;SDS011;1100;52.014;8.540;2023-07-31T01:57:26;1.53;;;0.63;;
2187;SDS011;1100;52.014;8.540;2023-07-31T01:59:52;1.07;;;0.30;;
2187;SDS011;1100;52.014;8.540;2023-07-31T02:02:18;1.30;;;0.40;;
2187;SDS011;1100;52.014;8.540;2023-07-31T02:04:44;2.28;;;0.30;;
2187;SDS011;1100;52.014;8.540;2023-07-31T02:07:09;1.60;;;0.50;;
2187;SDS011;1100;52.014;8.540;2023-07-31T02:09:34;1.57;;;0.60;;
2187;SDS011;1100;52.014;8.540;2023-07-31T02:12:00;1.53;;;0.50;;
2187;SDS011;1100;52.014;8.540;2023-07-31T02:14:25;1.02;;;0.30;;
2187;SDS011;1100;52.014;8.540;2023-07-31T02:16:50;1.80;;;0.50;;
2187;SDS011;1100;52.014;8.540;2023-07-31T02:19:16;1.17;;;0.33;;
2187;SDS011;1100;52.014;8.540;2023-07-31T02:21:41;0.80;;;0.20;;
2187;SDS011;1100;52.014;8.540;2023-07-31T02:24:06;0.90;;;0.20;;
2187;SDS011;1100;52.014;8.540;2023-07-31T02:26:32;1.43;;;0.60;;
2187;SDS011;1100;52.014;8.540;2023-07-31T02:28:57;1.73;;;0.50;;
2187;SDS011;1100;52.014;8.540;2023-07-31T02:31:22;1.47;;;0.33;;
2187;SDS011;1100;52.014;8.540;2023-07-31T02:33:48;1.20;;;0.50;;
2187;SDS011;1100;52.014;8.540;2023-07-31T02:36:13;0.87;;;0.20;;
2187;SDS011;1100;52.014;8.540;2023-07-31T02:38:39;1.00;;;0.30;;
2187;SDS011;1100;52.014;8.540;2023-07-31T02:41:05;2.03;;;0.47;;
2187;SDS011;1100;52.014;8.540;2023-07-31T02:43:30;1.17;;;0.30;;
2187;SDS011;1100;52.014;8.540;2023-07-31T02:45:55;0.70;;;0.20;;
2187;SDS011;1100;52.014;8.540;2023-07-31T02:48:21;1.10;;;0.20;;
2187;SDS011;1100;52.014;8.540;2023-07-31T02:50:47;2.07;;;0.53;;
2187;SDS011;1100;52.014;8.540;2023-07-31T02:53:13;1.23;;;0.30;;
2187;SDS011;1100;52.014;8.540;2023-07-31T02:55:38;1.23;;;0.28;;
2187;SDS011;1100;52.014;8.540;2023-07-31T02:58:04;1.07;;;0.20;;
2187;SDS011;1100;52.014;8.540;2023-07-31T03:00:29;0.90;;;0.30;;
2187;SDS011;1100;52.014;8.540;2023-07-31T03:02:55;1.27;;;0.50;;
2187;SDS011;1100;52.014;8.540;2023-07-31T03:05:20;1.00;;;0.20;;
2187;SDS011;1100;52.014;8.540;2023-07-31T03:07:45;1.00;;;0.30;;
2187;SDS011;1100;52.014;8.540;2023-07-31T03:10:11;1.33;;;0.30;;
2187;SDS011;1100;52.014;8.540;2023-07-31T03:12:36;2.00;;;0.53;;
2187;SDS011;1100;52.014;8.540;2023-07-31T03:15:01;1.13;;;0.33;;
2187;SDS011;1100;52.014;8.540;2023-07-31T03:17:27;1.77;;;0.50;;
2187;SDS011;1100;52.014;8.540;2023-07-31T03:19:52;2.87;;;1.13;;
2187;SDS011;1100;52.014;8.540;2023-07-31T03:22:17;1.80;;;0.60;;
2187;SDS011;1100;52.014;8.540;2023-07-31T03:24:43;7.03;;;0.90;;
2187;SDS011;1100;52.014;8.540;2023-07-31T03:27:08;2.92;;;1.13;;
2187;SDS011;1100;52.014;8.540;2023-07-31T03:29:34;2.47;;;1.13;;
2187;SDS011;1100;52.014;8.540;2023-07-31T03:31:59;3.97;;;1.23;;
2187;SDS011;1100;52.014;8.540;2023-07-31T03:34:25;2.93;;;1.07;;
2187;SDS011;1100;52.014;8.540;2023-07-31T03:36:50;3.73;;;1.60;;
2187;SDS011;1100;52.014;8.540;2023-07-31T03:39:16;15.67;;;1.50;;
2187;SDS011;1100;52.014;8.540;2023-07-31T03:41:41;5.03;;;1.60;;
2187;SDS011;1100;52.014;8.540;2023-07-31T03:44:06;3.60;;;1.83;;
2187;SDS011;1100;52.014;8.540;2023-07-31T03:46:32;5.57;;;2.45;;
2187;SDS011;1100;52.014;8.540;2023-07-31T03:48:58;5.90;;;1.85;;
2187;SDS011;1100;52.014;8.540;2023-07-31T03:51:24;3.17;;;1.70;;
2187;SDS011;1100;52.014;8.540;2023-07-31T03:53:49;7.50;;;1.33;;
2187;SDS011;1100;52.014;8.540;2023-07-31T03:56:14;3.47;;;1.77;;
2187;SDS011;1100;52.014;8.540;2023-07-31T03:58:40;4.00;;;1.63;;
2187;SDS011;1100;52.014;8.540;2023-07-31T04:01:05;4.00;;;2.17;;
2187;SDS011;1100;52.014;8.540;2023-07-31T04:03:30;5.57;;;2.23;;
2187;SDS011;1100;52.014;8.540;2023-07-31T04:05:56;4.40;;;2.00;;
2187;SDS011;1100;52.014;8.540;2023-07-31T04:08:22;4.90;;;2.33;;
2187;SDS011;1100;52.014;8.540;2023-07-31T04:10:48;3.70;;;1.58;;
2187;SDS011;1100;52.014;8.540;2023-07-31T04:13:13;3.67;;;1.75;;
2187;SDS011;1100;52.014;8.540;2023-07-31T04:15:39;3.90;;;2.17;;
2187;SDS011;1100;52.014;8.540;2023-07-31T04:18:06;3.77;;;1.70;;
2187;SDS011;1100;52.014;8.540;2023-07-31T04:20:31;3.50;;;1.80;;
2187;SDS011;1100;52.014;8.540;2023-07-31T04:22:56;3.53;;;1.50;;
2187;SDS011;1100;52.014;8.540;2023-07-31T04:25:22;5.70;;;2.40;;
2187;SDS011;1100;52.014;8.540;2023-07-31T04:27:47;5.93;;;1.92;;
2187;SDS011;1100;52.014;8.540;2023-07-31T04:30:13;3.70;;;1.73;;
2187;SDS011;1100;52.014;8.540;2023-07-31T04:32:38;3.50;;;1.40;;
2187;SDS011;1100;52.014;8.540;2023-07-31T04:35:03;3.27;;;1.50;;
2187;SDS011;1100;52.014;8.540;2023-07-31T04:37:29;3.28;;;1.80;;
2187;SDS011;1100;52.014;8.540;2023-07-31T04:39:54;6.33;;;2.47;;
2187;SDS011;1100;52.014;8.540;2023-07-31T04:42:20;3.47;;;1.87;;
2187;SDS011;1100;52.014;8.540;2023-07-31T04:44:45;5.50;;;2.13;;
2187;SDS011;1100;52.014;8.540;2023-07-31T04:47:10;7.33;;;2.73;;
2187;SDS011;1100;52.014;8.540;2023-07-31T04:49:36;6.33;;;1.80;;
2187;SDS011;1100;52.014;8.540;2023-07-31T04:52:01;3.43;;;1.37;;
2187;SDS011;1100;52.014;8.540;2023-07-31T04:54:27;6.10;;;2.35;;
2187;SDS011;1100;52.014;8.540;2023-07-31T04:56:52;3.20;;;1.47;;
2187;SDS011;1100;52.014;8.540;2023-07-31T04:59:17;4.83;;;2.13;;
2187;SDS011;1100;52.014;8.540;2023-07-31T05:01:43;5.80;;;2.57;;
2187;SDS011;1100;52.014;8.540;2023-07-31T05:04:12;2.87;;;1.63;;
2187;SDS011;1100;52.014;8.540;2023-07-31T05:06:39;3.88;;;1.33;;
2187;SDS011;1100;52.014;8.540;2023-07-31T05:09:04;3.60;;;1.90;;
2187;SDS011;1100;52.014;8.540;2023-07-31T05:11:29;5.07;;;1.55;;
2187;SDS011;1100;52.014;8.540;2023-07-31T05:13:55;4.00;;;1.17;;
2187;SDS011;1100;52.014;8.540;2023-07-31T05:16:20;2.63;;;1.10;;
2187;SDS011;1100;52.014;8.540;2023-07-31T05:18:45;2.40;;;0.90;;
2187;SDS011;1100;52.014;8.540;2023-07-31T05:21:11;2.53;;;1.40;;
2187;SDS011;1100;52.014;8.540;2023-07-31T05:23:36;2.53;;;0.93;;
2187;SDS011;1100;52.014;8.540;2023-07-31T05:26:05;4.77;;;1.70;;
2187;SDS011;1100;52.014;8.540;2023-07-31T05:28:34;3.33;;;1.45;;
2187;SDS011;1100;52.014;8.540;2023-07-31T05:31:00;3.88;;;1.13;;
2187;SDS011;1100;52.014;8.540;2023-07-31T05:33:26;4.32;;;1.60;;
2187;SDS011;1100;52.014;8.540;2023-07-31T05:35:51;4.70;;;1.77;;
2187;SDS011;1100;52.014;8.540;2023-07-31T05:38:17;3.37;;;1.13;;
2187;SDS011;1100;52.014;8.540;2023-07-31T05:40:43;3.47;;;1.30;;
2187;SDS011;1100;52.014;8.540;2023-07-31T05:43:08;2.97;;;1.37;;
2187;SDS011;1100;52.014;8.540;2023-07-31T05:45:34;6.13;;;2.33;;
2187;SDS011;1100;52.014;8.540;2023-07-31T05:48:00;3.80;;;1.17;;
2187;SDS011;1100;52.014;8.540;2023-07-31T05:50:25;8.52;;;2.38;;
2187;SDS011;1100;52.014;8.540;2023-07-31T05:52:51;2.87;;;1.40;;
2187;SDS011;1100;52.014;8.540;2023-07-31T05:55:16;6.05;;;1.25;;
2187;SDS011;1100;52.014;8.540;2023-07-31T05:57:42;2.57;;;1.07;;
2187;SDS011;1100;52.014;8.540;2023-07-31T06:00:08;5.70;;;1.07;;
2187;SDS011;1100;52.014;8.540;2023-07-31T06:02:33;3.03;;;1.25;;
2187;SDS011;1100;52.014;8.540;2023-07-31T06:05:01;3.63;;;1.13;;
2187;SDS011;1100;52.014;8.540;2023-07-31T06:07:28;4.32;;;1.38;;
2187;SDS011;1100;52.014;8.540;2023-07-31T06:09:54;2.97;;;1.33;;
2187;SDS011;1100;52.014;8.540;2023-07-31T06:12:20;3.25;;;1.17;;
2187;SDS011;1100;52.014;8.540;2023-07-31T06:14:45;3.73;;;0.90;;
2187;SDS011;1100;52.014;8.540;2023-07-31T06:17:11;2.83;;;0.90;;
2187;SDS011;1100;52.014;8.540;2023-07-31T06:19:36;4.40;;;1.30;;
2187;SDS011;1100;52.014;8.540;2023-07-31T06:22:01;2.33;;;1.07;;
2187;SDS011;1100;52.014;8.540;2023-07-31T06:24:27;3.50;;;1.45;;
2187;SDS011;1100;52.014;8.540;2023-07-31T06:26:53;2.83;;;0.63;;
2187;SDS011;1100;52.014;8.540;2023-07-31T06:29:18;3.67;;;1.30;;
2187;SDS011;1100;52.014;8.540;2023-07-31T06:31:43;2.57;;;1.20;;
2187;SDS011;1100;52.014;8.540;2023-07-31T06:34:09;3.13;;;1.03;;
2187;SDS011;1100;52.014;8.540;2023-07-31T06:36:34;5.07;;;1.77;;
2187;SDS011;1100;52.014;8.540;2023-07-31T06:38:59;2.20;;;0.83;;
2187;SDS011;1100;52.014;8.540;2023-07-31T06:41:25;4.33;;;1.93;;
2187;SDS011;1100;52.014;8.540;2023-07-31T06:43:50;2.93;;;1.60;;
2187;SDS011;1100;52.014;8.540;2023-07-31T06:46:15;3.00;;;0.70;;
2187;SDS011;1100;52.014;8.540;2023-07-31T06:48:40;2.97;;;1.17;;
2187;SDS011;1100;52.014;8.540;2023-07-31T06:51:06;2.17;;;0.80;;
2187;SDS011;1100;52.014;8.540;2023-07-31T06:53:31;2.95;;;1.00;;
2187;SDS011;1100;52.014;8.540;2023-07-31T06:55:57;3.40;;;1.40;;
2187;SDS011;1100;52.014;8.540;2023-07-31T06:58:22;4.47;;;1.13;;
2187;SDS011;1100;52.014;8.540;2023-07-31T07:00:48;4.00;;;1.03;;
2187;SDS011;1100;52.014;8.540;2023-07-31T07:03:14;3.80;;;1.25;;
2187;SDS011;1100;52.014;8.540;2023-07-31T07:05:40;4.07;;;1.67;;
2187;SDS011;1100;52.014;8.540;2023-07-31T07:08:05;4.75;;;1.40;;
2187;SDS011;1100;52.014;8.540;2023-07-31T07:10:31;5.53;;;1.57;;
2187;SDS011;1100;52.014;8.540;2023-07-31T07:12:56;4.73;;;0.93;;
2187;SDS011;1100;52.014;8.540;2023-07-31T07:15:21;3.00;;;1.13;;
2187;SDS011;1100;52.014;8.540;2023-07-31T07:17:46;6.23;;;1.53;;
2187;SDS011;1100;52.014;8.540;2023-07-31T07:20:12;2.57;;;1.10;;
2187;SDS011;1100;52.014;8.540;2023-07-31T07:22:37;3.00;;;1.05;;
2187;SDS011;1100;52.014;8.540;2023-07-31T07:25:03;2.57;;;0.83;;
2187;SDS011;1100;52.014;8.540;2023-07-31T07:27:29;3.58;;;1.77;;
2187;SDS011;1100;52.014;8.540;2023-07-31T07:29:54;3.20;;;1.20;;
2187;SDS011;1100;52.014;8.540;2023-07-31T07:32:20;4.77;;;1.63;;
2187;SDS011;1100;52.014;8.540;2023-07-31T07:34:46;3.35;;;1.23;;
2187;SDS011;1100;52.014;8.540;2023-07-31T07:37:12;7.80;;;1.23;;
2187;SDS011;1100;52.014;8.540;2023-07-31T07:39:37;4.77;;;1.33;;
2187;SDS011;1100;52.014;8.540;2023-07-31T07:42:03;4.17;;;1.17;;
2187;SDS011;1100;52.014;8.540;2023-07-31T07:44:28;3.37;;;1.17;;
2187;SDS011;1100;52.014;8.540;2023-07-31T07:46:54;3.10;;;1.10;;
2187;SDS011;1100;52.014;8.540;2023-07-31T07:49:19;3.83;;;1.27;;
2187;SDS011;1100;52.014;8.540;2023-07-31T07:51:47;3.40;;;1.30;;
2187;SDS011;1100;52.014;8.540;2023-07-31T07:54:13;3.87;;;1.20;;
2187;SDS011;1100;52.014;8.540;2023-07-31T07:56:38;3.63;;;1.42;;
2187;SDS011;1100;52.014;8.540;2023-07-31T07:59:04;2.03;;;0.67;;
2187;SDS011;1100;52.014;8.540;2023-07-31T08:01:29;3.03;;;0.98;;
2187;SDS011;1100;52.014;8.540;2023-07-31T08:03:55;1.67;;;0.67;;
2187;SDS011;1100;52.014;8.540;2023-07-31T08:06:20;2.70;;;0.60;;
2187;SDS011;1100;52.014;8.540;2023-07-31T08:08:46;4.60;;;0.73;;
2187;SDS011;1100;52.014;8.540;2023-07-31T08:11:11;2.30;;;0.83;;
2187;SDS011;1100;52.014;8.540;2023-07-31T08:13:36;2.30;;;0.93;;
2187;SDS011;1100;52.014;8.540;2023-07-31T08:16:03;2.00;;;0.77;;
2187;SDS011;1100;52.014;8.540;2023-07-31T08:18:30;2.05;;;0.77;;
2187;SDS011;1100;52.014;8.540;2023-07-31T08:20:56;2.08;;;0.93;;
2187;SDS011;1100;52.014;8.540;2023-07-31T08:23:21;1.57;;;0.63;;
2187;SDS011;1100;52.014;8.540;2023-07-31T08:25:46;1.63;;;0.60;;
2187;SDS011;1100;52.014;8.540;2023-07-31T08:28:12;2.23;;;1.00;;
2187;SDS011;1100;52.014;8.540;2023-07-31T08:30:37;3.23;;;1.20;;
2187;SDS011;1100;52.014;8.540;2023-07-31T08:33:03;2.75;;;1.35;;
2187;SDS011;1100;52.014;8.540;2023-07-31T08:35:28;2.27;;;0.80;;
2187;SDS011;1100;52.014;8.540;2023-07-31T08:37:54;3.43;;;1.33;;
2187;SDS011;1100;52.014;8.540;2023-07-31T08:40:19;3.08;;;0.93;;
2187;SDS011;1100;52.014;8.540;2023-07-31T08:42:47;3.30;;;1.27;;
2187;SDS011;1100;52.014;8.540;2023-07-31T08:45:15;3.00;;;1.03;;
2187;SDS011;1100;52.014;8.540;2023-07-31T08:47:45;2.65;;;1.05;;
2187;SDS011;1100;52.014;8.540;2023-07-31T08:50:12;3.42;;;0.80;;
2187;SDS011;1100;52.014;8.540;2023-07-31T08:52:39;3.75;;;1.40;;
2187;SDS011;1100;52.014;8.540;2023-07-31T08:55:05;2.47;;;0.93;;
2187;SDS011;1100;52.014;8.540;2023-07-31T08:57:31;2.22;;;0.90;;
2187;SDS011;1100;52.014;8.540;2023-07-31T08:59:59;3.35;;;1.25;;
2187;SDS011;1100;52.014;8.540;2023-07-31T09:02:25;2.65;;;1.20;;
2187;SDS011;1100;52.014;8.540;2023-07-31T09:04:59;2.17;;;0.73;;
2187;SDS011;1100;52.014;8.540;2023-07-31T09:07:25;2.60;;;1.05;;
2187;SDS011;1100;52.014;8.540;2023-07-31T09:09:50;2.93;;;1.37;;
2187;SDS011;1100;52.014;8.540;2023-07-31T09:12:16;2.60;;;0.55;;
2187;SDS011;1100;52.014;8.540;2023-07-31T09:14:42;3.67;;;1.33;;
2187;SDS011;1100;52.014;8.540;2023-07-31T09:17:10;2.88;;;0.93;;
2187;SDS011;1100;52.014;8.540;2023-07-31T09:19:35;2.27;;;1.00;;
2187;SDS011;1100;52.014;8.540;2023-07-31T09:22:03;3.40;;;0.88;;
2187;SDS011;1100;52.014;8.540;2023-07-31T09:24:29;2.67;;;0.87;;
2187;SDS011;1100;52.014;8.540;2023-07-31T09:26:56;2.83;;;0.93;;
2187;SDS011;1100;52.014;8.540;2023-07-31T09:29:26;1.92;;;0.82;;
2187;SDS011;1100;52.014;8.540;2023-07-31T09:31:53;5.18;;;0.73;;
2187;SDS011;1100;52.014;8.540;2023-07-31T09:34:19;3.25;;;1.15;;
2187;SDS011;1100;52.014;8.540;2023-07-31T09:36:52;1.87;;;0.67;;
2187;SDS011;1100;52.014;8.540;2023-07-31T09:39:18;3.97;;;1.48;;
2187;SDS011;1100;52.014;8.540;2023-07-31T09:41:53;2.60;;;0.95;;
2187;SDS011;1100;52.014;8.540;2023-07-31T09:44:19;1.77;;;0.60;;
2187;SDS011;1100;52.014;8.540;2023-07-31T09:46:46;2.13;;;0.77;;
2187;SDS011;1100;52.014;8.540;2023-07-31T09:49:12;2.42;;;0.63;;
2187;SDS011;1100;52.014;8.540;2023-07-31T09:51:39;4.63;;;1.30;;
2187;SDS011;1100;52.014;8.540;2023-07-31T09:54:09;2.55;;;0.98;;
2187;SDS011;1100;52.014;8.540;2023-07-31T09:56:37;2.43;;;1.03;;
2187;SDS011;1100;52.014;8.540;2023-07-31T09:59:06;2.42;;;0.98;;
2187;SDS011;1100;52.014;8.540;2023-07-31T10:01:35;2.25;;;0.90;;
2187;SDS011;1100;52.014;8.540;2023-07-31T10:04:01;3.63;;;1.03;;
2187;SDS011;1100;52.014;8.540;2023-07-31T10:06:27;1.90;;;0.47;;
2187;SDS011;1100;52.014;8.540;2023-07-31T10:08:53;2.95;;;1.13;;
2187;SDS011;1100;52.014;8.540;2023-07-31T10:11:20;2.80;;;1.03;;
2187;SDS011;1100;52.014;8.540;2023-07-31T10:13:47;2.13;;;0.70;;
2187;SDS011;1100;52.014;8.540;2023-07-31T10:16:13;2.67;;;0.80;;
2187;SDS011;1100;52.014;8.540;2023-07-31T10:18:41;1.83;;;0.70;;
2187;SDS011;1100;52.014;8.540;2023-07-31T10:21:07;1.65;;;0.57;;
2187;SDS011;1100;52.014;8.540;2023-07-31T10:23:32;2.23;;;0.73;;
2187;SDS011;1100;52.014;8.540;2023-07-31T10:25:58;3.00;;;0.83;;
2187;SDS011;1100;52.014;8.540;2023-07-31T10:28:24;3.10;;;0.90;;
2187;SDS011;1100;52.014;8.540;2023-07-31T10:30:50;1.73;;;0.60;;
2187;SDS011;1100;52.014;8.540;2023-07-31T10:33:15;1.87;;;0.60;;
2187;SDS011;1100;52.014;8.540;2023-07-31T10:35:42;1.92;;;0.55;;
2187;SDS011;1100;52.014;8.540;2023-07-31T10:38:11;1.00;;;0.30;;
2187;SDS011;1100;52.014;8.540;2023-07-31T10:40:37;1.48;;;0.50;;
2187;SDS011;1100;52.014;8.540;2023-07-31T10:43:02;1.47;;;0.60;;
2187;SDS011;1100;52.014;8.540;2023-07-31T10:45:32;1.60;;;0.47;;
2187;SDS011;1100;52.014;8.540;2023-07-31T10:48:14;1.23;;;0.43;;
2187;SDS011;1100;52.014;8.540;2023-07-31T10:50:51;1.55;;;0.57;;
2187;SDS011;1100;52.014;8.540;2023-07-31T10:53:24;1.52;;;0.60;;
2187;SDS011;1100;52.014;8.540;2023-07-31T10:55:49;1.48;;;0.50;;
2187;SDS011;1100;52.014;8.540;2023-07-31T10:58:17;1.47;;;0.40;;
2187;SDS011;1100;52.014;8.540;2023-07-31T11:00:44;2.20;;;0.50;;
2187;SDS011;1100;52.014;8.540;2023-07-31T11:03:10;1.47;;;0.50;;
2187;SDS011;1100;52.014;8.540;2023-07-31T11:08:12;1.75;;;0.55;;
2187;SDS011;1100;52.014;8.540;2023-07-31T11:10:37;2.20;;;0.70;;
2187;SDS011;1100;52.014;8.540;2023-07-31T11:13:04;1.53;;;0.50;;
2187;SDS011;1100;52.014;8.540;2023-07-31T11:15:29;2.28;;;0.55;;
2187;SDS011;1100;52.014;8.540;2023-07-31T11:17:55;1.47;;;0.50;;
2187;SDS011;1100;52.014;8.540;2023-07-31T11:20:23;2.33;;;0.80;;
2187;SDS011;1100;52.014;8.540;2023-07-31T11:22:49;1.67;;;0.50;;
2187;SDS011;1100;52.014;8.540;2023-07-31T11:25:14;1.80;;;0.60;;
2187;SDS011;1100;52.014;8.540;2023-07-31T11:27:40;2.20;;;0.67;;
2187;SDS011;1100;52.014;8.540;2023-07-31T11:30:08;1.70;;;0.50;;
2187;SDS011;1100;52.014;8.540;2023-07-31T11:32:37;2.00;;;0.50;;
2187;SDS011;1100;52.014;8.540;2023-07-31T11:35:03;1.33;;;0.47;;
2187;SDS011;1100;52.014;8.540;2023-07-31T11:37:43;1.45;;;0.38;;
2187;SDS011;1100;52.014;8.540;2023-07-31T11:40:09;1.33;;;0.40;;
2187;SDS011;1100;52.014;8.540;2023-07-31T11:42:35;2.95;;;0.63;;
2187;SDS011;1100;52.014;8.540;2023-07-31T11:45:02;1.77;;;0.57;;
2187;SDS011;1100;52.014;8.540;2023-07-31T11:47:28;1.55;;;0.40;;
2187;SDS011;1100;52.014;8.540;2023-07-31T11:49:57;1.95;;;0.60;;
2187;SDS011;1100;52.014;8.540;2023-07-31T11:52:23;2.00;;;0.70;;
2187;SDS011;1100;52.014;8.540;2023-07-31T11:54:49;2.25;;;0.90;;
2187;SDS011;1100;52.014;8.540;2023-07-31T11:57:15;1.67;;;0.50;;
2187;SDS011;1100;52.014;8.540;2023-07-31T11:59:41;1.65;;;0.52;;
2187;SDS011;1100;52.014;8.540;2023-07-31T12:02:08;2.80;;;0.85;;
2187;SDS011;1100;52.014;8.540;2023-07-31T12:04:33;1.80;;;0.40;;
2187;SDS011;1100;52.014;8.540;2023-07-31T12:07:00;3.75;;;0.85;;
2187;SDS011;1100;52.014;8.540;2023-07-31T12:09:25;1.92;;;0.52;;
2187;SDS011;1100;52.014;8.540;2023-07-31T12:11:51;1.67;;;0.40;;
2187;SDS011;1100;52.014;8.540;2023-07-31T12:14:20;1.88;;;0.43;;
2187;SDS011;1100;52.014;8.540;2023-07-31T12:16:53;1.00;;;0.30;;
2187;SDS011;1100;52.014;8.540;2023-07-31T12:19:19;1.88;;;0.60;;
2187;SDS011;1100;52.014;8.540;2023-07-31T12:21:45;1.87;;;0.63;;
2187;SDS011;1100;52.014;8.540;2023-07-31T12:24:10;1.98;;;0.55;;
2187;SDS011;1100;52.014;8.540;2023-07-31T12:26:35;2.03;;;0.70;;
2187;SDS011;1100;52.014;8.540;2023-07-31T12:29:01;1.80;;;0.50;;
2187;SDS011;1100;52.014;8.540;2023-07-31T12:31:27;1.73;;;0.50;;
2187;SDS011;1100;52.014;8.540;2023-07-31T12:33:54;1.60;;;0.50;;
2187;SDS011;1100;52.014;8.540;2023-07-31T12:36:21;1.40;;;0.47;;
2187;SDS011;1100;52.014;8.540;2023-07-31T12:38:48;1.48;;;0.45;;
2187;SDS011;1100;52.014;8.540;2023-07-31T12:41:15;1.37;;;0.40;;
2187;SDS011;1100;52.014;8.540;2023-07-31T12:43:41;1.10;;;0.30;;
2187;SDS011;1100;52.014;8.540;2023-07-31T12:46:07;2.00;;;0.70;;
2187;SDS011;1100;52.014;8.540;2023-07-31T12:48:33;1.30;;;0.40;;
2187;SDS011;1100;52.014;8.540;2023-07-31T12:50:59;2.10;;;0.75;;
2187;SDS011;1100;52.014;8.540;2023-07-31T12:53:25;1.45;;;0.45;;
2187;SDS011;1100;52.014;8.540;2023-07-31T12:55:50;2.40;;;1.07;;
2187;SDS011;1100;52.014;8.540;2023-07-31T12:58:16;1.90;;;0.70;;
2187;SDS011;1100;52.014;8.540;2023-07-31T13:00:42;3.25;;;0.95;;
2187;SDS011;1100;52.014;8.540;2023-07-31T13:03:07;2.43;;;0.63;;
2187;SDS011;1100;52.014;8.540;2023-07-31T13:05:33;3.60;;;1.10;;
2187;SDS011;1100;52.014;8.540;2023-07-31T13:07:58;3.33;;;1.48;;
2187;SDS011;1100;52.014;8.540;2023-07-31T13:10:24;2.57;;;1.07;;
2187;SDS011;1100;52.014;8.540;2023-07-31T13:12:51;3.00;;;1.00;;
2187;SDS011;1100;52.014;8.540;2023-07-31T13:15:17;2.80;;;0.83;;
2187;SDS011;1100;52.014;8.540;2023-07-31T13:17:42;2.75;;;1.23;;
2187;SDS011;1100;52.014;8.540;2023-07-31T13:20:08;3.10;;;0.87;;
2187;SDS011;1100;52.014;8.540;2023-07-31T13:22:34;3.03;;;1.20;;
2187;SDS011;1100;52.014;8.540;2023-07-31T13:24:59;3.05;;;1.42;;
2187;SDS011;1100;52.014;8.540;2023-07-31T13:27:25;2.83;;;1.20;;
2187;SDS011;1100;52.014;8.540;2023-07-31T13:29:51;3.60;;;1.77;;
2187;SDS011;1100;52.014;8.540;2023-07-31T13:32:17;2.38;;;0.95;;
2187;SDS011;1100;52.014;8.540;2023-07-31T13:34:44;2.97;;;1.38;;
2187;SDS011;1100;52.014;8.540;2023-07-31T13:37:11;2.72;;;0.80;;
2187;SDS011;1100;52.014;8.540;2023-07-31T13:39:36;2.60;;;1.02;;
2187;SDS011;1100;52.014;8.540;2023-07-31T13:42:02;3.07;;;1.30;;
2187;SDS011;1100;52.014;8.540;2023-07-31T13:44:31;2.78;;;0.90;;
2187;SDS011;1100;52.014;8.540;2023-07-31T13:46:57;3.33;;;1.10;;
2187;SDS011;1100;52.014;8.540;2023-07-31T13:49:22;2.53;;;1.00;;
2187;SDS011;1100;52.014;8.540;2023-07-31T13:51:47;2.33;;;0.82;;
2187;SDS011;1100;52.014;8.540;2023-07-31T13:54:13;3.13;;;1.37;;
2187;SDS011;1100;52.014;8.540;2023-07-31T13:56:40;3.38;;;1.27;;
2187;SDS011;1100;52.014;8.540;2023-07-31T13:59:06;2.43;;;0.80;;
2187;SDS011;1100;52.014;8.540;2023-07-31T14:01:31;2.87;;;1.07;;
2187;SDS011;1100;52.014;8.540;2023-07-31T14:03:57;2.28;;;1.05;;
2187;SDS011;1100;52.014;8.540;2023-07-31T14:06:23;8.77;;;1.47;;
2187;SDS011;1100;52.014;8.540;2023-07-31T14:08:48;3.43;;;1.20;;
2187;SDS011;1100;52.014;8.540;2023-07-31T14:11:13;4.03;;;0.80;;
2187;SDS011;1100;52.014;8.540;2023-07-31T14:13:39;3.03;;;1.13;;
2187;SDS011;1100;52.014;8.540;2023-07-31T14:16:04;1.90;;;0.90;;
2187;SDS011;1100;52.014;8.540;2023-07-31T14:18:30;2.60;;;1.00;;
2187;SDS011;1100;52.014;8.540;2023-07-31T14:20:55;5.87;;;1.10;;
2187;SDS011;1100;52.014;8.540;2023-07-31T14:23:21;1.87;;;0.60;;
2187;SDS011;1100;52.014;8.540;2023-07-31T14:25:46;1.77;;;0.53;;
2187;SDS011;1100;52.014;8.540;2023-07-31T14:28:12;3.22;;;1.20;;
2187;SDS011;1100;52.014;8.540;2023-07-31T14:30:38;2.90;;;0.87;;
2187;SDS011;1100;52.014;8.540;2023-07-31T14:33:03;3.50;;;0.80;;
2187;SDS011;1100;52.014;8.540;2023-07-31T14:35:28;2.15;;;0.82;;
2187;SDS011;1100;52.014;8.540;2023-07-31T14:37:54;2.97;;;0.97;;
2187;SDS011;1100;52.014;8.540;2023-07-31T14:40:19;2.53;;;0.70;;
2187;SDS011;1100;52.014;8.540;2023-07-31T14:42:45;2.63;;;0.85;;
2187;SDS011;1100;52.014;8.540;2023-07-31T14:45:10;2.40;;;0.50;;
2187;SDS011;1100;52.014;8.540;2023-07-31T14:47:39;4.00;;;1.05;;
2187;SDS011;1100;52.014;8.540;2023-07-31T14:50:05;2.27;;;0.80;;
2187;SDS011;1100;52.014;8.540;2023-07-31T14:52:30;1.83;;;0.70;;
2187;SDS011;1100;52.014;8.540;2023-07-31T14:54:56;2.80;;;0.90;;
2187;SDS011;1100;52.014;8.540;2023-07-31T14:57:21;3.27;;;0.80;;
2187;SDS011;1100;52.014;8.540;2023-07-31T14:59:47;1.70;;;0.50;;
2187;SDS011;1100;52.014;8.540;2023-07-31T15:02:12;2.53;;;1.10;;
2187;SDS011;1100;52.014;8.540;2023-07-31T15:04:38;2.50;;;0.90;;
2187;SDS011;1100;52.014;8.540;2023-07-31T15:07:03;1.80;;;0.60;;
2187;SDS011;1100;52.014;8.540;2023-07-31T15:09:29;1.60;;;0.60;;
2187;SDS011;1100;52.014;8.540;2023-07-31T15:11:55;2.50;;;0.80;;
2187;SDS011;1100;52.014;8.540;2023-07-31T15:14:21;2.92;;;1.30;;
2187;SDS011;1100;52.014;8.540;2023-07-31T15:16:47;2.43;;;0.80;;
2187;SDS011;1100;52.014;8.540;2023-07-31T15:19:12;1.70;;;0.60;;